sensor_id;sensor_type;location;lat;lon;timestamp;temperature;humidity
21502;DHT22;27639;48.674;9.242;2023-11-19T00:00:36;12.00;64.00
21502;DHT22;27639;48.674;9.242;2023-11-19T00:03:01;12.00;64.00
21502;DHT22;27639;48.674;9.242;2023-11-19T00:05:27;12.00;64.30
21502;DHT22;27639;48.674;9.242;2023-11-19T00:07:55;12.00;64.30
21502;DHT22;27639;48.674;9.242;2023-11-19T00:10:21;12.00;64.30
21502;DHT22;27639;48.674;9.242;2023-11-19T00:12:48;12.00;64.50
21502;DHT22;27639;48.674;9.242;2023-11-19T00:15:14;12.00;64.60
21502;DHT22;27639;48.674;9.242;2023-11-19T00:17:41;12.00;64.70
21502;DHT22;27639;48.674;9.242;2023-11-19T00:20:14;12.00;64.90
21502;DHT22;27639;48.674;9.242;2023-11-19T00:22:40;12.00;64.90
21502;DHT22;27639;48.674;9.242;2023-11-19T00:25:06;12.00;65.20
21502;DHT22;27639;48.674;9.242;2023-11-19T00:27:32;12.10;65.40
21502;DHT22;27639;48.674;9.242;2023-11-19T00:29:57;12.10;65.60
21502;DHT22;27639;48.674;9.242;2023-11-19T00:32:23;12.10;65.70
21502;DHT22;27639;48.674;9.242;2023-11-19T00:34:49;12.10;65.90
21502;DHT22;27639;48.674;9.242;2023-11-19T00:37:15;12.10;66.10
21502;DHT22;27639;48.674;9.242;2023-11-19T00:39:41;12.20;66.30
21502;DHT22;27639;48.674;9.242;2023-11-19T00:42:07;12.20;66.40
21502;DHT22;27639;48.674;9.242;2023-11-19T00:44:32;12.20;66.60
21502;DHT22;27639;48.674;9.242;2023-11-19T00:46:58;12.20;66.70
21502;DHT22;27639;48.674;9.242;2023-11-19T00:49:25;12.20;66.90
21502;DHT22;27639;48.674;9.242;2023-11-19T00:51:51;12.30;67.10
21502;DHT22;27639;48.674;9.242;2023-11-19T00:54:16;12.20;67.30
21502;DHT22;27639;48.674;9.242;2023-11-19T00:56:42;12.20;67.50
21502;DHT22;27639;48.674;9.242;2023-11-19T00:59:07;12.20;67.60
21502;DHT22;27639;48.674;9.242;2023-11-19T01:01:33;12.20;67.60
21502;DHT22;27639;48.674;9.242;2023-11-19T01:03:59;12.30;67.80
21502;DHT22;27639;48.674;9.242;2023-11-19T01:06:31;12.30;67.80
21502;DHT22;27639;48.674;9.242;2023-11-19T01:08:57;12.40;67.80
21502;DHT22;27639;48.674;9.242;2023-11-19T01:11:24;12.40;67.90
21502;DHT22;27639;48.674;9.242;2023-11-19T01:13:50;12.40;68.20
21502;DHT22;27639;48.674;9.242;2023-11-19T01:16:16;12.40;68.40
21502;DHT22;27639;48.674;9.242;2023-11-19T01:18:42;12.30;68.30
21502;DHT22;27639;48.674;9.242;2023-11-19T01:21:08;12.40;68.40
21502;DHT22;27639;48.674;9.242;2023-11-19T01:23:34;12.40;68.40
21502;DHT22;27639;48.674;9.242;2023-11-19T01:26:00;12.50;68.50
21502;DHT22;27639;48.674;9.242;2023-11-19T01:28:25;12.50;68.50
21502;DHT22;27639;48.674;9.242;2023-11-19T01:30:51;12.50;68.50
21502;DHT22;27639;48.674;9.242;2023-11-19T01:33:17;12.50;68.50
21502;DHT22;27639;48.674;9.242;2023-11-19T01:35:43;12.60;68.60
21502;DHT22;27639;48.674;9.242;2023-11-19T01:38:08;12.60;68.60
21502;DHT22;27639;48.674;9.242;2023-11-19T01:40:34;12.60;68.60
21502;DHT22;27639;48.674;9.242;2023-11-19T01:43:02;12.70;68.60
21502;DHT22;27639;48.674;9.242;2023-11-19T01:45:28;12.70;68.50
21502;DHT22;27639;48.674;9.242;2023-11-19T01:47:59;12.80;68.60
21502;DHT22;27639;48.674;9.242;2023-11-19T01:50:26;12.80;68.50
21502;DHT22;27639;48.674;9.242;2023-11-19T01:52:53;12.80;68.60
21502;DHT22;27639;48.674;9.242;2023-11-19T01:55:20;12.80;68.80
21502;DHT22;27639;48.674;9.242;2023-11-19T01:57:48;12.80;68.80
21502;DHT22;27639;48.674;9.242;2023-11-19T02:00:15;12.80;68.90
21502;DHT22;27639;48.674;9.242;2023-11-19T02:02:42;12.80;68.80
21502;DHT22;27639;48.674;9.242;2023-11-19T02:05:09;12.80;68.80
21502;DHT22;27639;48.674;9.242;2023-11-19T02:07:35;12.90;68.90
21502;DHT22;27639;48.674;9.242;2023-11-19T02:10:01;12.90;68.90
21502;DHT22;27639;48.674;9.242;2023-11-19T02:12:29;12.90;68.90
21502;DHT22;27639;48.674;9.242;2023-11-19T02:14:55;12.80;69.30
21502;DHT22;27639;48.674;9.242;2023-11-19T02:17:30;12.90;69.00
21502;DHT22;27639;48.674;9.242;2023-11-19T02:19:57;12.90;68.90
21502;DHT22;27639;48.674;9.242;2023-11-19T02:22:24;12.90;68.90
21502;DHT22;27639;48.674;9.242;2023-11-19T02:24:51;13.00;69.00
21502;DHT22;27639;48.674;9.242;2023-11-19T02:30:14;13.00;69.00
21502;DHT22;27639;48.674;9.242;2023-11-19T02:32:41;13.00;69.30
21502;DHT22;27639;48.674;9.242;2023-11-19T02:35:07;13.00;69.60
21502;DHT22;27639;48.674;9.242;2023-11-19T02:37:34;13.00;69.30
21502;DHT22;27639;48.674;9.242;2023-11-19T02:40:00;13.10;69.20
21502;DHT22;27639;48.674;9.242;2023-11-19T02:42:28;13.00;70.10
21502;DHT22;27639;48.674;9.242;2023-11-19T02:44:54;13.00;69.90
21502;DHT22;27639;48.674;9.242;2023-11-19T02:47:19;13.00;69.60
21502;DHT22;27639;48.674;9.242;2023-11-19T02:49:49;13.10;69.70
21502;DHT22;27639;48.674;9.242;2023-11-19T02:52:15;13.20;69.30
21502;DHT22;27639;48.674;9.242;2023-11-19T02:54:41;13.20;69.30
21502;DHT22;27639;48.674;9.242;2023-11-19T02:57:07;13.20;70.10
21502;DHT22;27639;48.674;9.242;2023-11-19T02:59:38;13.10;70.00
21502;DHT22;27639;48.674;9.242;2023-11-19T03:02:07;13.20;70.20
21502;DHT22;27639;48.674;9.242;2023-11-19T03:04:37;13.20;70.40
21502;DHT22;27639;48.674;9.242;2023-11-19T03:07:05;13.20;70.30
21502;DHT22;27639;48.674;9.242;2023-11-19T03:09:30;13.20;70.40
21502;DHT22;27639;48.674;9.242;2023-11-19T03:11:56;13.30;70.60
21502;DHT22;27639;48.674;9.242;2023-11-19T03:14:21;13.30;70.60
21502;DHT22;27639;48.674;9.242;2023-11-19T03:16:48;13.30;70.90
21502;DHT22;27639;48.674;9.242;2023-11-19T03:19:13;13.30;70.90
21502;DHT22;27639;48.674;9.242;2023-11-19T03:21:39;13.40;70.80
21502;DHT22;27639;48.674;9.242;2023-11-19T03:24:05;13.40;70.60
21502;DHT22;27639;48.674;9.242;2023-11-19T03:26:30;13.40;70.60
21502;DHT22;27639;48.674;9.242;2023-11-19T03:28:56;13.40;70.60
21502;DHT22;27639;48.674;9.242;2023-11-19T03:31:22;13.40;70.80
21502;DHT22;27639;48.674;9.242;2023-11-19T03:33:48;13.40;71.70
21502;DHT22;27639;48.674;9.242;2023-11-19T03:36:14;13.40;70.80
21502;DHT22;27639;48.674;9.242;2023-11-19T03:38:39;13.50;70.90
21502;DHT22;27639;48.674;9.242;2023-11-19T03:41:14;13.50;70.80
21502;DHT22;27639;48.674;9.242;2023-11-19T03:43:40;13.50;70.90
21502;DHT22;27639;48.674;9.242;2023-11-19T03:46:18;13.50;70.90
21502;DHT22;27639;48.674;9.242;2023-11-19T03:48:44;13.50;70.80
21502;DHT22;27639;48.674;9.242;2023-11-19T03:51:11;13.60;71.00
21502;DHT22;27639;48.674;9.242;2023-11-19T03:53:42;13.60;70.80
21502;DHT22;27639;48.674;9.242;2023-11-19T03:56:08;13.70;70.70
21502;DHT22;27639;48.674;9.242;2023-11-19T03:58:35;13.70;70.70
21502;DHT22;27639;48.674;9.242;2023-11-19T04:01:01;13.70;70.50
21502;DHT22;27639;48.674;9.242;2023-11-19T04:03:27;13.70;70.40
21502;DHT22;27639;48.674;9.242;2023-11-19T04:05:53;13.80;70.40
21502;DHT22;27639;48.674;9.242;2023-11-19T04:08:18;13.80;70.90
21502;DHT22;27639;48.674;9.242;2023-11-19T04:10:44;13.70;70.70
21502;DHT22;27639;48.674;9.242;2023-11-19T04:13:10;13.80;70.90
21502;DHT22;27639;48.674;9.242;2023-11-19T04:15:36;13.80;70.90
21502;DHT22;27639;48.674;9.242;2023-11-19T04:18:01;13.70;71.10
21502;DHT22;27639;48.674;9.242;2023-11-19T04:20:27;13.80;70.90
21502;DHT22;27639;48.674;9.242;2023-11-19T04:22:52;13.80;70.70
21502;DHT22;27639;48.674;9.242;2023-11-19T04:25:19;13.90;70.90
21502;DHT22;27639;48.674;9.242;2023-11-19T04:27:44;13.80;71.60
21502;DHT22;27639;48.674;9.242;2023-11-19T04:30:10;13.80;70.90
21502;DHT22;27639;48.674;9.242;2023-11-19T04:32:36;13.80;71.10
21502;DHT22;27639;48.674;9.242;2023-11-19T04:35:02;13.80;71.30
21502;DHT22;27639;48.674;9.242;2023-11-19T04:37:28;13.80;71.30
21502;DHT22;27639;48.674;9.242;2023-11-19T04:39:54;13.70;71.60
21502;DHT22;27639;48.674;9.242;2023-11-19T04:42:22;13.70;71.60
21502;DHT22;27639;48.674;9.242;2023-11-19T04:44:47;13.70;71.80
21502;DHT22;27639;48.674;9.242;2023-11-19T04:47:14;13.70;72.30
21502;DHT22;27639;48.674;9.242;2023-11-19T04:49:43;13.70;72.30
21502;DHT22;27639;48.674;9.242;2023-11-19T04:52:08;13.70;72.50
21502;DHT22;27639;48.674;9.242;2023-11-19T04:54:34;13.70;72.70
21502;DHT22;27639;48.674;9.242;2023-11-19T04:57:00;13.70;72.80
21502;DHT22;27639;48.674;9.242;2023-11-19T04:59:25;13.70;72.80
21502;DHT22;27639;48.674;9.242;2023-11-19T05:01:52;13.70;72.60
21502;DHT22;27639;48.674;9.242;2023-11-19T05:04:18;13.80;72.50
21502;DHT22;27639;48.674;9.242;2023-11-19T05:06:44;13.90;72.40
21502;DHT22;27639;48.674;9.242;2023-11-19T05:09:10;13.90;72.40
21502;DHT22;27639;48.674;9.242;2023-11-19T05:11:38;13.90;72.50
21502;DHT22;27639;48.674;9.242;2023-11-19T05:14:04;13.90;72.80
21502;DHT22;27639;48.674;9.242;2023-11-19T05:16:31;13.90;72.80
21502;DHT22;27639;48.674;9.242;2023-11-19T05:18:56;13.80;73.00
21502;DHT22;27639;48.674;9.242;2023-11-19T05:21:22;13.90;72.90
21502;DHT22;27639;48.674;9.242;2023-11-19T05:23:47;13.90;72.80
21502;DHT22;27639;48.674;9.242;2023-11-19T05:26:20;13.90;72.60
21502;DHT22;27639;48.674;9.242;2023-11-19T05:28:47;14.00;72.50
21502;DHT22;27639;48.674;9.242;2023-11-19T05:31:13;14.00;72.30
21502;DHT22;27639;48.674;9.242;2023-11-19T05:33:38;14.10;72.40
21502;DHT22;27639;48.674;9.242;2023-11-19T05:36:05;14.10;72.50
21502;DHT22;27639;48.674;9.242;2023-11-19T05:38:31;14.20;72.20
21502;DHT22;27639;48.674;9.242;2023-11-19T05:40:56;14.20;72.10
21502;DHT22;27639;48.674;9.242;2023-11-19T05:43:22;14.20;72.00
21502;DHT22;27639;48.674;9.242;2023-11-19T05:45:48;14.30;71.90
21502;DHT22;27639;48.674;9.242;2023-11-19T05:48:13;14.30;71.90
21502;DHT22;27639;48.674;9.242;2023-11-19T05:50:39;14.30;72.00
21502;DHT22;27639;48.674;9.242;2023-11-19T05:53:05;14.30;71.90
21502;DHT22;27639;48.674;9.242;2023-11-19T05:55:34;14.30;72.00
21502;DHT22;27639;48.674;9.242;2023-11-19T05:58:01;14.30;71.90
21502;DHT22;27639;48.674;9.242;2023-11-19T06:00:27;14.30;72.00
21502;DHT22;27639;48.674;9.242;2023-11-19T06:02:52;14.40;71.90
21502;DHT22;27639;48.674;9.242;2023-11-19T06:05:18;14.40;71.60
21502;DHT22;27639;48.674;9.242;2023-11-19T06:07:44;14.40;71.50
21502;DHT22;27639;48.674;9.242;2023-11-19T06:10:10;14.40;71.90
21502;DHT22;27639;48.674;9.242;2023-11-19T06:12:36;14.40;72.00
21502;DHT22;27639;48.674;9.242;2023-11-19T06:15:05;14.40;71.80
21502;DHT22;27639;48.674;9.242;2023-11-19T06:17:31;14.40;71.70
21502;DHT22;27639;48.674;9.242;2023-11-19T06:19:57;14.50;71.70
21502;DHT22;27639;48.674;9.242;2023-11-19T06:22:22;14.50;71.60
21502;DHT22;27639;48.674;9.242;2023-11-19T06:24:48;14.50;71.70
21502;DHT22;27639;48.674;9.242;2023-11-19T06:27:13;14.50;71.60
21502;DHT22;27639;48.674;9.242;2023-11-19T06:29:39;14.50;71.70
21502;DHT22;27639;48.674;9.242;2023-11-19T06:32:06;14.50;72.00
21502;DHT22;27639;48.674;9.242;2023-11-19T06:34:33;14.50;72.00
21502;DHT22;27639;48.674;9.242;2023-11-19T06:36:59;14.40;72.20
21502;DHT22;27639;48.674;9.242;2023-11-19T06:39:25;14.40;72.30
21502;DHT22;27639;48.674;9.242;2023-11-19T06:41:50;14.40;72.20
21502;DHT22;27639;48.674;9.242;2023-11-19T06:44:16;14.40;72.30
21502;DHT22;27639;48.674;9.242;2023-11-19T06:46:41;14.50;72.40
21502;DHT22;27639;48.674;9.242;2023-11-19T06:49:07;14.50;72.20
21502;DHT22;27639;48.674;9.242;2023-11-19T06:51:34;14.50;72.10
21502;DHT22;27639;48.674;9.242;2023-11-19T06:53:59;14.60;72.20
21502;DHT22;27639;48.674;9.242;2023-11-19T06:56:25;14.60;72.10
21502;DHT22;27639;48.674;9.242;2023-11-19T06:58:51;14.60;72.10
21502;DHT22;27639;48.674;9.242;2023-11-19T07:01:17;14.60;72.00
21502;DHT22;27639;48.674;9.242;2023-11-19T07:03:45;14.70;71.80
21502;DHT22;27639;48.674;9.242;2023-11-19T07:06:11;14.70;71.80
21502;DHT22;27639;48.674;9.242;2023-11-19T07:08:38;14.70;71.90
21502;DHT22;27639;48.674;9.242;2023-11-19T07:11:04;14.80;71.70
21502;DHT22;27639;48.674;9.242;2023-11-19T07:13:30;14.80;71.80
21502;DHT22;27639;48.674;9.242;2023-11-19T07:15:56;14.80;71.70
21502;DHT22;27639;48.674;9.242;2023-11-19T07:18:21;14.80;71.70
21502;DHT22;27639;48.674;9.242;2023-11-19T07:20:48;14.80;71.80
21502;DHT22;27639;48.674;9.242;2023-11-19T07:23:13;14.80;71.70
21502;DHT22;27639;48.674;9.242;2023-11-19T07:25:42;14.80;71.50
21502;DHT22;27639;48.674;9.242;2023-11-19T07:28:08;14.80;71.30
21502;DHT22;27639;48.674;9.242;2023-11-19T07:30:35;14.80;71.80
21502;DHT22;27639;48.674;9.242;2023-11-19T07:33:00;14.80;71.20
21502;DHT22;27639;48.674;9.242;2023-11-19T07:35:26;14.80;71.20
21502;DHT22;27639;48.674;9.242;2023-11-19T07:37:51;14.80;71.20
21502;DHT22;27639;48.674;9.242;2023-11-19T07:40:17;14.90;71.50
21502;DHT22;27639;48.674;9.242;2023-11-19T07:42:44;14.80;71.30
21502;DHT22;27639;48.674;9.242;2023-11-19T07:45:10;14.80;71.30
21502;DHT22;27639;48.674;9.242;2023-11-19T07:47:35;14.80;71.80
21502;DHT22;27639;48.674;9.242;2023-11-19T07:50:01;14.80;71.90
21502;DHT22;27639;48.674;9.242;2023-11-19T07:52:26;14.80;71.90
21502;DHT22;27639;48.674;9.242;2023-11-19T07:54:52;14.80;72.00
21502;DHT22;27639;48.674;9.242;2023-11-19T07:57:17;14.80;71.80
21502;DHT22;27639;48.674;9.242;2023-11-19T07:59:43;14.80;71.80
21502;DHT22;27639;48.674;9.242;2023-11-19T08:02:08;14.80;71.80
21502;DHT22;27639;48.674;9.242;2023-11-19T08:04:34;14.80;71.90
21502;DHT22;27639;48.674;9.242;2023-11-19T08:07:00;14.80;72.00
21502;DHT22;27639;48.674;9.242;2023-11-19T08:09:25;14.80;72.00
21502;DHT22;27639;48.674;9.242;2023-11-19T08:11:51;14.90;72.00
21502;DHT22;27639;48.674;9.242;2023-11-19T08:14:16;14.90;72.10
21502;DHT22;27639;48.674;9.242;2023-11-19T08:16:42;14.90;72.10
21502;DHT22;27639;48.674;9.242;2023-11-19T08:19:07;15.00;72.20
21502;DHT22;27639;48.674;9.242;2023-11-19T08:21:33;15.00;72.00
21502;DHT22;27639;48.674;9.242;2023-11-19T08:23:59;15.00;71.80
21502;DHT22;27639;48.674;9.242;2023-11-19T08:26:25;15.00;71.90
21502;DHT22;27639;48.674;9.242;2023-11-19T08:28:50;15.00;72.10
21502;DHT22;27639;48.674;9.242;2023-11-19T08:31:17;15.00;72.10
21502;DHT22;27639;48.674;9.242;2023-11-19T08:33:43;15.10;72.00
21502;DHT22;27639;48.674;9.242;2023-11-19T08:36:08;15.10;71.80
21502;DHT22;27639;48.674;9.242;2023-11-19T08:38:34;15.20;71.30
21502;DHT22;27639;48.674;9.242;2023-11-19T08:41:00;15.30;71.40
21502;DHT22;27639;48.674;9.242;2023-11-19T08:43:26;15.40;71.50
21502;DHT22;27639;48.674;9.242;2023-11-19T08:45:52;15.40;71.50
21502;DHT22;27639;48.674;9.242;2023-11-19T08:48:17;15.50;71.60
21502;DHT22;27639;48.674;9.242;2023-11-19T08:50:43;15.50;71.60
21502;DHT22;27639;48.674;9.242;2023-11-19T08:53:09;15.70;71.90
21502;DHT22;27639;48.674;9.242;2023-11-19T08:55:34;15.80;71.50
21502;DHT22;27639;48.674;9.242;2023-11-19T08:58:00;15.80;70.90
21502;DHT22;27639;48.674;9.242;2023-11-19T09:00:26;15.80;70.60
21502;DHT22;27639;48.674;9.242;2023-11-19T09:02:51;15.90;70.50
21502;DHT22;27639;48.674;9.242;2023-11-19T09:05:17;16.00;70.50
21502;DHT22;27639;48.674;9.242;2023-11-19T09:07:43;16.00;70.30
21502;DHT22;27639;48.674;9.242;2023-11-19T09:10:08;16.00;70.10
21502;DHT22;27639;48.674;9.242;2023-11-19T09:12:34;16.00;70.00
21502;DHT22;27639;48.674;9.242;2023-11-19T09:15:00;16.10;70.00
21502;DHT22;27639;48.674;9.242;2023-11-19T09:17:26;16.10;70.00
21502;DHT22;27639;48.674;9.242;2023-11-19T09:19:51;16.10;70.00
21502;DHT22;27639;48.674;9.242;2023-11-19T09:22:17;16.20;69.70
21502;DHT22;27639;48.674;9.242;2023-11-19T09:24:42;16.20;69.60
21502;DHT22;27639;48.674;9.242;2023-11-19T09:27:10;16.30;69.50
21502;DHT22;27639;48.674;9.242;2023-11-19T09:29:36;16.30;69.50
21502;DHT22;27639;48.674;9.242;2023-11-19T09:32:01;16.40;69.30
21502;DHT22;27639;48.674;9.242;2023-11-19T09:34:27;16.50;69.20
21502;DHT22;27639;48.674;9.242;2023-11-19T09:36:53;16.50;68.80
21502;DHT22;27639;48.674;9.242;2023-11-19T09:39:19;16.50;68.60
21502;DHT22;27639;48.674;9.242;2023-11-19T09:41:46;16.50;68.70
21502;DHT22;27639;48.674;9.242;2023-11-19T09:44:11;16.60;68.90
21502;DHT22;27639;48.674;9.242;2023-11-19T09:46:38;16.60;68.80
21502;DHT22;27639;48.674;9.242;2023-11-19T09:49:05;16.70;68.80
21502;DHT22;27639;48.674;9.242;2023-11-19T09:51:33;16.80;68.70
21502;DHT22;27639;48.674;9.242;2023-11-19T09:53:58;16.80;68.50
21502;DHT22;27639;48.674;9.242;2023-11-19T09:56:24;16.90;68.00
21502;DHT22;27639;48.674;9.242;2023-11-19T09:58:50;16.80;67.90
21502;DHT22;27639;48.674;9.242;2023-11-19T10:01:16;16.90;68.30
21502;DHT22;27639;48.674;9.242;2023-11-19T10:03:42;17.00;67.90
21502;DHT22;27639;48.674;9.242;2023-11-19T10:06:09;17.10;67.50
21502;DHT22;27639;48.674;9.242;2023-11-19T10:08:39;17.10;67.10
21502;DHT22;27639;48.674;9.242;2023-11-19T10:11:06;17.10;67.20
21502;DHT22;27639;48.674;9.242;2023-11-19T10:13:36;17.10;66.80
21502;DHT22;27639;48.674;9.242;2023-11-19T10:16:09;17.10;66.80
21502;DHT22;27639;48.674;9.242;2023-11-19T10:18:37;17.10;66.70
21502;DHT22;27639;48.674;9.242;2023-11-19T10:21:04;17.20;66.70
21502;DHT22;27639;48.674;9.242;2023-11-19T10:23:31;17.20;66.60
21502;DHT22;27639;48.674;9.242;2023-11-19T10:26:04;17.30;66.50
21502;DHT22;27639;48.674;9.242;2023-11-19T10:28:39;17.30;65.90
21502;DHT22;27639;48.674;9.242;2023-11-19T10:31:06;17.30;66.10
21502;DHT22;27639;48.674;9.242;2023-11-19T10:33:31;17.40;66.50
21502;DHT22;27639;48.674;9.242;2023-11-19T10:35:57;17.60;66.30
21502;DHT22;27639;48.674;9.242;2023-11-19T10:38:24;17.70;65.80
21502;DHT22;27639;48.674;9.242;2023-11-19T10:40:53;17.70;65.80
21502;DHT22;27639;48.674;9.242;2023-11-19T10:43:20;17.80;65.50
21502;DHT22;27639;48.674;9.242;2023-11-19T10:45:50;17.80;64.90
21502;DHT22;27639;48.674;9.242;2023-11-19T10:48:16;17.90;65.00
21502;DHT22;27639;48.674;9.242;2023-11-19T10:50:44;17.80;64.30
21502;DHT22;27639;48.674;9.242;2023-11-19T10:53:11;17.90;64.60
21502;DHT22;27639;48.674;9.242;2023-11-19T10:55:41;17.90;64.60
21502;DHT22;27639;48.674;9.242;2023-11-19T10:58:08;18.00;64.70
21502;DHT22;27639;48.674;9.242;2023-11-19T11:00:39;18.10;64.80
21502;DHT22;27639;48.674;9.242;2023-11-19T11:03:29;18.20;64.60
21502;DHT22;27639;48.674;9.242;2023-11-19T11:05:57;18.30;63.70
21502;DHT22;27639;48.674;9.242;2023-11-19T11:08:23;18.30;63.70
21502;DHT22;27639;48.674;9.242;2023-11-19T11:10:56;18.40;63.40
21502;DHT22;27639;48.674;9.242;2023-11-19T11:13:24;18.50;63.10
21502;DHT22;27639;48.674;9.242;2023-11-19T11:15:50;18.70;63.10
21502;DHT22;27639;48.674;9.242;2023-11-19T11:18:17;18.80;62.70
21502;DHT22;27639;48.674;9.242;2023-11-19T11:20:45;18.90;62.70
21502;DHT22;27639;48.674;9.242;2023-11-19T11:29:04;19.20;61.20
21502;DHT22;27639;48.674;9.242;2023-11-19T11:37:03;19.00;60.00
21502;DHT22;27639;48.674;9.242;2023-11-19T11:39:32;19.10;59.80
21502;DHT22;27639;48.674;9.242;2023-11-19T11:44:58;18.90;59.50
21502;DHT22;27639;48.674;9.242;2023-11-19T11:47:25;18.90;59.90
21502;DHT22;27639;48.674;9.242;2023-11-19T11:49:52;18.80;59.70
21502;DHT22;27639;48.674;9.242;2023-11-19T11:52:17;18.80;59.70
21502;DHT22;27639;48.674;9.242;2023-11-19T11:54:44;18.80;59.60
21502;DHT22;27639;48.674;9.242;2023-11-19T11:57:11;18.90;59.60
21502;DHT22;27639;48.674;9.242;2023-11-19T12:02:11;18.80;59.50
21502;DHT22;27639;48.674;9.242;2023-11-19T12:04:37;18.80;59.30
21502;DHT22;27639;48.674;9.242;2023-11-19T12:07:16;18.80;59.20
21502;DHT22;27639;48.674;9.242;2023-11-19T12:09:47;18.90;58.90
21502;DHT22;27639;48.674;9.242;2023-11-19T12:12:21;18.90;59.00
21502;DHT22;27639;48.674;9.242;2023-11-19T12:20:00;19.20;58.60
21502;DHT22;27639;48.674;9.242;2023-11-19T12:22:27;19.20;57.80
21502;DHT22;27639;48.674;9.242;2023-11-19T12:24:56;19.10;57.50
21502;DHT22;27639;48.674;9.242;2023-11-19T12:27:22;19.10;57.20
21502;DHT22;27639;48.674;9.242;2023-11-19T12:29:48;19.20;57.40
21502;DHT22;27639;48.674;9.242;2023-11-19T12:32:14;19.20;57.00
21502;DHT22;27639;48.674;9.242;2023-11-19T12:34:40;19.10;56.90
21502;DHT22;27639;48.674;9.242;2023-11-19T12:37:06;19.20;57.10
21502;DHT22;27639;48.674;9.242;2023-11-19T12:39:31;19.20;56.80
21502;DHT22;27639;48.674;9.242;2023-11-19T12:41:57;19.30;57.00
21502;DHT22;27639;48.674;9.242;2023-11-19T12:44:25;19.30;56.90
21502;DHT22;27639;48.674;9.242;2023-11-19T12:49:26;19.30;56.40
21502;DHT22;27639;48.674;9.242;2023-11-19T12:51:52;19.30;56.40
21502;DHT22;27639;48.674;9.242;2023-11-19T12:54:18;19.20;56.10
21502;DHT22;27639;48.674;9.242;2023-11-19T12:56:53;19.20;56.40
21502;DHT22;27639;48.674;9.242;2023-11-19T12:59:19;19.10;55.80
21502;DHT22;27639;48.674;9.242;2023-11-19T13:01:57;19.00;56.40
21502;DHT22;27639;48.674;9.242;2023-11-19T13:04:23;19.00;56.20
21502;DHT22;27639;48.674;9.242;2023-11-19T13:06:52;19.10;56.40
21502;DHT22;27639;48.674;9.242;2023-11-19T13:09:27;19.00;56.00
21502;DHT22;27639;48.674;9.242;2023-11-19T13:11:54;19.00;55.70
21502;DHT22;27639;48.674;9.242;2023-11-19T13:14:20;19.00;56.00
21502;DHT22;27639;48.674;9.242;2023-11-19T13:16:46;19.00;55.70
21502;DHT22;27639;48.674;9.242;2023-11-19T13:19:16;19.00;55.70
21502;DHT22;27639;48.674;9.242;2023-11-19T13:21:44;19.00;55.80
21502;DHT22;27639;48.674;9.242;2023-11-19T13:24:12;18.90;55.70
21502;DHT22;27639;48.674;9.242;2023-11-19T13:26:38;18.90;55.60
21502;DHT22;27639;48.674;9.242;2023-11-19T13:29:04;18.80;55.60
21502;DHT22;27639;48.674;9.242;2023-11-19T13:31:29;18.90;55.50
21502;DHT22;27639;48.674;9.242;2023-11-19T13:33:55;18.90;55.20
21502;DHT22;27639;48.674;9.242;2023-11-19T13:36:22;18.90;55.20
21502;DHT22;27639;48.674;9.242;2023-11-19T13:38:47;18.80;54.90
21502;DHT22;27639;48.674;9.242;2023-11-19T13:41:13;18.80;55.00
21502;DHT22;27639;48.674;9.242;2023-11-19T13:43:39;18.80;54.90
21502;DHT22;27639;48.674;9.242;2023-11-19T13:46:05;18.60;54.60
21502;DHT22;27639;48.674;9.242;2023-11-19T13:48:31;18.70;54.90
21502;DHT22;27639;48.674;9.242;2023-11-19T13:50:57;18.50;55.30
21502;DHT22;27639;48.674;9.242;2023-11-19T13:53:23;18.50;54.20
21502;DHT22;27639;48.674;9.242;2023-11-19T13:55:49;18.30;54.20
21502;DHT22;27639;48.674;9.242;2023-11-19T13:58:15;18.40;54.30
21502;DHT22;27639;48.674;9.242;2023-11-19T14:00:41;18.30;54.30
21502;DHT22;27639;48.674;9.242;2023-11-19T14:03:07;18.30;54.50
21502;DHT22;27639;48.674;9.242;2023-11-19T14:05:33;18.20;54.50
21502;DHT22;27639;48.674;9.242;2023-11-19T14:07:58;18.20;54.40
21502;DHT22;27639;48.674;9.242;2023-11-19T14:10:24;18.10;54.30
21502;DHT22;27639;48.674;9.242;2023-11-19T14:12:50;18.10;54.20
21502;DHT22;27639;48.674;9.242;2023-11-19T14:15:15;18.00;54.00
21502;DHT22;27639;48.674;9.242;2023-11-19T14:17:45;17.90;54.10
21502;DHT22;27639;48.674;9.242;2023-11-19T14:20:10;17.90;54.20
21502;DHT22;27639;48.674;9.242;2023-11-19T14:22:41;17.90;54.40
21502;DHT22;27639;48.674;9.242;2023-11-19T14:25:07;17.90;54.50
21502;DHT22;27639;48.674;9.242;2023-11-19T14:27:38;18.00;54.50
21502;DHT22;27639;48.674;9.242;2023-11-19T14:30:09;17.90;54.60
21502;DHT22;27639;48.674;9.242;2023-11-19T14:32:36;17.90;54.50
21502;DHT22;27639;48.674;9.242;2023-11-19T14:35:02;17.90;54.60
21502;DHT22;27639;48.674;9.242;2023-11-19T14:37:29;17.80;54.40
21502;DHT22;27639;48.674;9.242;2023-11-19T14:39:56;17.90;54.50
21502;DHT22;27639;48.674;9.242;2023-11-19T14:42:23;17.90;54.50
21502;DHT22;27639;48.674;9.242;2023-11-19T14:44:48;17.80;54.50
21502;DHT22;27639;48.674;9.242;2023-11-19T14:47:14;17.80;54.60
21502;DHT22;27639;48.674;9.242;2023-11-19T14:49:40;17.80;54.60
21502;DHT22;27639;48.674;9.242;2023-11-19T14:52:05;17.70;54.70
21502;DHT22;27639;48.674;9.242;2023-11-19T14:54:31;17.60;54.60
21502;DHT22;27639;48.674;9.242;2023-11-19T14:56:56;17.60;54.40
21502;DHT22;27639;48.674;9.242;2023-11-19T14:59:24;17.50;54.50
21502;DHT22;27639;48.674;9.242;2023-11-19T15:01:50;17.50;54.50
21502;DHT22;27639;48.674;9.242;2023-11-19T15:04:15;17.40;54.40
21502;DHT22;27639;48.674;9.242;2023-11-19T15:06:41;17.40;54.40
21502;DHT22;27639;48.674;9.242;2023-11-19T15:09:06;17.20;54.20
21502;DHT22;27639;48.674;9.242;2023-11-19T15:11:33;17.10;54.20
21502;DHT22;27639;48.674;9.242;2023-11-19T15:13:58;17.10;54.30
21502;DHT22;27639;48.674;9.242;2023-11-19T15:16:25;17.10;54.30
21502;DHT22;27639;48.674;9.242;2023-11-19T15:18:57;17.00;54.30
21502;DHT22;27639;48.674;9.242;2023-11-19T15:21:25;17.00;54.40
21502;DHT22;27639;48.674;9.242;2023-11-19T15:23:52;17.00;54.30
21502;DHT22;27639;48.674;9.242;2023-11-19T15:26:17;16.90;54.20
21502;DHT22;27639;48.674;9.242;2023-11-19T15:28:43;16.90;54.20
21502;DHT22;27639;48.674;9.242;2023-11-19T15:31:09;16.80;54.00
21502;DHT22;27639;48.674;9.242;2023-11-19T15:33:35;16.70;54.00
21502;DHT22;27639;48.674;9.242;2023-11-19T15:36:01;16.70;54.20
21502;DHT22;27639;48.674;9.242;2023-11-19T15:38:28;16.70;54.20
21502;DHT22;27639;48.674;9.242;2023-11-19T15:40:54;16.60;54.20
21502;DHT22;27639;48.674;9.242;2023-11-19T15:43:20;16.60;54.30
21502;DHT22;27639;48.674;9.242;2023-11-19T15:45:46;16.50;54.20
21502;DHT22;27639;48.674;9.242;2023-11-19T15:48:11;16.50;54.30
21502;DHT22;27639;48.674;9.242;2023-11-19T15:50:39;16.50;54.30
21502;DHT22;27639;48.674;9.242;2023-11-19T15:53:04;16.40;54.30